Ktima, Cyprus
Current Conditions -  °F | °C
As of 4:30 AM on Wednesday 28 Jan 2015 (Local Time) from LCPH Reporting Station
Broken Clouds Broken Clouds  
Wind Chill: 14°   Ceiling: 3900
Heat Index: 14°   Visibility: 6mi
Dew Point: 10°   Wind: 22mph
Humidity: 77%   Direction: 270°W
Pressure: 29.88"   Gusts: NA
Location:  34.76°N, 32.42°E
Report Text: LCPH 280130Z AUTO 27019KT 9999 FEW031 BKN039 14/10 Q1012
Loading
Personal Weather Stations






























Interactive Weather Map New forecast layout! Learn more

10-Day Weather Forecast

Advertisements
Track Severe Weather on mobile